Time;durP1;ratioP1;P1;durP2;ratioP2;P2;SDS_P1;SDS_P2;PMS_P1;PMS_P2;Temp;Humidity;BMP_temperature;BMP_pressure;BME280_temperature;BME280_humidity;BME280_pressure;Samples;Min_cycle;Max_cycle;Signal;HPM_P1;HPM_P2
2023/04/07 00:00:04;;;;;;;;;;;;;;;;;;4925484;29;20074;-80
2023/04/07 00:02:31;;;;;;;;;;;;;;;;;;4928382;29;19919;-81
2023/04/07 00:04:57;;;;;;;;;;;;;;;;;;4927634;29;19918;-80
2023/04/07 00:07:23;;;;;;;;;;;;;;;;;;4939336;29;19917;-80
2023/04/07 00:09:49;;;;;;;;;;;;;;;;;;4932819;29;19910;-81
2023/04/07 00:12:15;;;;;;;;;;;;;;;;;;4935040;29;19967;-80
2023/04/07 00:14:41;;;;;;;;;;;;;;;;;;4933471;29;20378;-80
2023/04/07 00:17:07;;;;;;;;;;;;;;;;;;4936440;29;19918;-81
2023/04/07 00:19:33;;;;;;;;;;;;;;;;;;4936894;29;20290;-79
2023/04/07 00:21:59;;;;;;;;;;;;;;;;;;4938703;29;19918;-81
2023/04/07 00:24:24;;;;;;;;;;;;;;;;;;4936726;29;20202;-80
2023/04/07 00:26:50;;;;;;;;;;;;;;;;;;4936696;29;20384;-83
2023/04/07 00:29:16;;;;;;;;;;;;;;;;;;4934111;29;19925;-81
2023/04/07 00:31:42;;;;;;;;;;;;;;;;;;4935970;29;19915;-81
2023/04/07 00:34:08;;;;;;;;;;;;;;;;;;4931937;29;19926;-81
2023/04/07 00:36:33;;;;;;;;;;;7.70;99.90;;;;;;4935145;29;19949;-80
2023/04/07 00:38:59;;;;;;;;;;;;;;;;;;4936259;29;19921;-81
2023/04/07 00:41:25;;;;;;;;;;;;;;;;;;4936171;29;20001;-80
2023/04/07 00:43:51;;;;;;;;;;;;;;;;;;4928178;29;19942;-82
2023/04/07 00:46:17;;;;;;;;;;;;;;;;;;4929215;29;20287;-81
2023/04/07 00:48:43;;;;;;;;;;;;;;;;;;4938007;29;19910;-81
2023/04/07 00:51:09;;;;;;;;;;;;;;;;;;4931629;29;20636;-81
2023/04/07 00:53:35;;;;;;;;;;;;;;;;;;4941727;29;19918;-81
2023/04/07 00:56:01;;;;;;;;;;;;;;;;;;4938521;29;19953;-81
2023/04/07 00:58:26;;;;;;;;;;;;;;;;;;4945203;29;19918;-80
2023/04/07 01:00:52;;;;;;;;;;;;;;;;;;4940738;29;19926;-82
2023/04/07 01:03:18;;;;;;;;;;;;;;;;;;4927840;29;19970;-79
2023/04/07 01:05:44;;;;;;;;;;;;;;;;;;4927248;29;20292;-79
2023/04/07 01:08:10;;;;;;;;;;;;;;;;;;4930088;29;20475;-80
2023/04/07 01:10:36;;;;;;;;;;;;;;;;;;4921030;29;19926;-81
2023/04/07 01:13:02;;;;;;;;;;;;;;;;;;4925731;29;19937;-81
2023/04/07 01:15:28;;;;;;;;;;;;;;;;;;4933732;29;19919;-79
2023/04/07 01:17:54;;;;;;;;;;;;;;;;;;4931229;29;20072;-79
2023/04/07 01:20:21;;;;;;;;;;;6.40;99.90;;;;;;4929669;29;20851;-80
2023/04/07 01:22:47;;;;;;;;;;;;;;;;;;4931655;29;19942;-81
2023/04/07 01:25:13;;;;;;;;;;;;;;;;;;4928841;29;19968;-80
2023/04/07 01:27:39;;;;;;;;;;;;;;;;;;4932742;29;19914;-81
2023/04/07 01:30:05;;;;;;;;;;;;;;;;;;4923249;29;19954;-79
2023/04/07 01:32:30;;;;;;;;;;;;;;;;;;4929207;29;20338;-80
2023/04/07 01:34:56;;;;;;;;;;;;;;;;;;4926738;29;19982;-80
2023/04/07 01:37:22;;;;;;;;;;;;;;;;;;4929870;29;19919;-79
2023/04/07 01:39:48;;;;;;;;;;;;;;;;;;4933654;29;19915;-79
2023/04/07 01:42:14;;;;;;;;;;;6.20;99.90;;;;;;4926979;29;20307;-79
2023/04/07 01:44:40;;;;;;;;;;;;;;;;;;4923604;29;19917;-80
2023/04/07 01:47:05;;;;;;;;;;;6.50;99.90;;;;;;4930045;29;19911;-79
2023/04/07 01:49:31;;;;;;;;;;;;;;;;;;4929044;29;19914;-80
2023/04/07 01:51:57;;;;;;;;;;;;;;;;;;4930171;29;19922;-80
2023/04/07 01:54:23;;;;;;;;;;;;;;;;;;4925832;29;19918;-79
2023/04/07 01:56:49;;;;;;;;;;;;;;;;;;4930374;29;19914;-80
2023/04/07 01:59:15;;;;;;;;;;;;;;;;;;4924124;29;19911;-80
2023/04/07 02:01:41;;;;;;;;;;;6.30;99.90;;;;;;4920236;29;19926;-79
2023/04/07 02:04:07;;;;;;;;;;;;;;;;;;4926240;29;20005;-81
2023/04/07 02:06:33;;;;;;;;;;;;;;;;;;4933787;29;19915;-80
2023/04/07 02:08:58;;;;;;;;;;;;;;;;;;4926463;29;19923;-80
2023/04/07 02:11:25;;;;;;;;;;;;;;;;;;4933686;29;19921;-80
2023/04/07 02:13:51;;;;;;;;;;;;;;;;;;4924035;29;19919;-81
2023/04/07 02:16:17;;;;;;;;;;;;;;;;;;4929868;29;19974;-80
2023/04/07 02:18:43;;;;;;;;;;;;;;;;;;4934018;29;19926;-80
2023/04/07 02:21:10;;;;;;;;;;;;;;;;;;4923520;29;20265;-79
2023/04/07 02:23:36;;;;;;;;;;;;;;;;;;4918670;29;19911;-81
2023/04/07 02:26:02;;;;;;;;;;;;;;;;;;4930098;29;19920;-79
2023/04/07 02:28:27;;;;;;;;;;;;;;;;;;4930400;29;19919;-80
2023/04/07 02:30:53;;;;;;;;;;;;;;;;;;4929416;28;19954;-79
2023/04/07 02:33:20;;;;;;;;;;;;;;;;;;4914248;29;19922;-80
2023/04/07 02:35:45;;;;;;;;;;;;;;;;;;4926275;29;19915;-81
2023/04/07 02:38:11;;;;;;;;;;;;;;;;;;4929172;29;20287;-80
2023/04/07 02:40:37;;;;;;;;;;;6.20;99.90;;;;;;4929525;29;19914;-80
2023/04/07 02:43:04;;;;;;;;;;;;;;;;;;4928862;29;19942;-81
2023/04/07 02:45:29;;;;;;;;;;;;;;;;;;4909874;29;19911;-80
2023/04/07 02:47:55;;;;;;;;;;;;;;;;;;4924375;29;19917;-79
2023/04/07 02:50:21;;;;;;;;;;;;;;;;;;4931359;29;19911;-80
2023/04/07 02:52:47;;;;;;;;;;;6.20;99.90;;;;;;4928124;29;20017;-80
2023/04/07 02:55:13;;;;;;;;;;;;;;;;;;4926826;29;19925;-82
2023/04/07 02:57:38;;;;;;;;;;;;;;;;;;4928341;29;19919;-80
2023/04/07 03:00:04;;;;;;;;;;;;;;;;;;4927492;29;19919;-80
2023/04/07 03:02:30;;;;;;;;;;;;;;;;;;4927590;29;19996;-82
2023/04/07 03:04:56;;;;;;;;;;;;;;;;;;4929985;29;19957;-80
2023/04/07 03:07:22;;;;;;;;;;;6.00;99.90;;;;;;4925873;29;20319;-80
2023/04/07 03:09:47;;;;;;;;;;;;;;;;;;4927456;29;19910;-80
2023/04/07 03:12:13;;;;;;;;;;;;;;;;;;4924460;29;20005;-80
2023/04/07 03:14:39;;;;;;;;;;;;;;;;;;4926828;29;19989;-80
2023/04/07 03:17:05;;;;;;;;;;;;;;;;;;4928896;29;20366;-80
2023/04/07 03:19:31;;;;;;;;;;;;;;;;;;4926379;29;19949;-82
2023/04/07 03:21:57;;;;;;;;;;;;;;;;;;4925386;29;20372;-80
2023/04/07 03:24:23;;;;;;;;;;;;;;;;;;4929449;29;19958;-80
2023/04/07 03:26:50;;;;;;;;;;;;;;;;;;4925389;29;19910;-80
2023/04/07 03:29:15;;;;;;;;;;;6.20;99.90;;;;;;4921127;29;19914;-80
2023/04/07 03:31:41;;;;;;;;;;;;;;;;;;4922493;29;19911;-80
2023/04/07 03:34:07;;;;;;;;;;;;;;;;;;4927394;29;20037;-80
2023/04/07 03:36:33;;;;;;;;;;;;;;;;;;4912864;29;20101;-79
2023/04/07 03:38:59;;;;;;;;;;;;;;;;;;4936978;29;19906;-80
2023/04/07 03:41:25;;;;;;;;;;;;;;;;;;4927218;29;19918;-79
2023/04/07 03:43:51;;;;;;;;;;;;;;;;;;4928558;29;19929;-81
2023/04/07 03:46:16;;;;;;;;;;;;;;;;;;4929525;29;20032;-81
2023/04/07 03:48:42;;;;;;;;;;;;;;;;;;4931519;29;19939;-79
2023/04/07 03:51:08;;;;;;;;;;;;;;;;;;4923142;29;20683;-80
2023/04/07 03:53:34;;;;;;;;;;;;;;;;;;4928901;29;19918;-80
2023/04/07 03:56:00;;;;;;;;;;;;;;;;;;4922103;29;19918;-80
2023/04/07 03:58:26;;;;;;;;;;;6.60;99.90;;;;;;4924618;29;20366;-80
2023/04/07 04:00:52;;;;;;;;;;;;;;;;;;4922814;29;19919;-80
2023/04/07 04:03:17;;;;;;;;;;;;;;;;;;4924792;29;19958;-80
2023/04/07 04:05:43;;;;;;;;;;;;;;;;;;4936989;29;19914;-80
2023/04/07 04:08:09;;;;;;;;;;;;;;;;;;4936974;29;20347;-79
2023/04/07 04:10:35;;;;;;;;;;;;;;;;;;4930163;29;19911;-80
2023/04/07 04:13:03;;;;;;;6.35;3.65;;;;;;;;;;4931448;29;19919;-79
2023/04/07 04:15:29;;;;;;;9.10;3.85;;;;;;;;;;4933581;29;20023;-80
2023/04/07 04:17:55;;;;;;;5.82;3.10;;;;;;;;;;4925614;29;20047;-81
2023/04/07 04:20:21;;;;;;;9.43;3.72;;;;;;;;;;4924950;29;20134;-80
2023/04/07 04:22:47;;;;;;;5.78;3.10;;;;;;;;;;4931256;29;20043;-81
2023/04/07 04:25:13;;;;;;;10.85;4.93;;;;;;;;;;4936479;29;20036;-80
2023/04/07 04:27:39;;;;;;;10.30;3.78;;;;;;;;;;4935084;29;20059;-80
2023/04/07 04:30:05;;;;;;;9.93;4.32;;;;;;;;;;4921614;29;20499;-80
2023/04/07 04:32:31;;;;;;;7.38;3.78;;;;;;;;;;4924160;29;20544;-80
2023/04/07 04:34:57;;;;;;;8.30;3.10;;;;;;;;;;4928235;29;20032;-80
2023/04/07 04:37:23;;;;;;;9.32;3.75;;;;;;;;;;4929139;29;20040;-80
2023/04/07 04:39:49;;;;;;;6.10;3.30;;;;;;;;;;4931241;29;20057;-79
2023/04/07 04:42:15;;;;;;;8.88;4.25;;;;;;;;;;4926438;29;20436;-79
2023/04/07 04:44:41;;;;;;;8.70;3.97;;;;;;;;;;4929245;29;20110;-80
2023/04/07 04:47:07;;;;;;;9.13;3.40;;;;;;;;;;4931053;29;20034;-80
2023/04/07 04:49:33;;;;;;;9.23;4.20;;;;;;;;;;4929765;29;20055;-79
2023/04/07 04:51:59;;;;;;;8.95;4.35;;;;;;;;;;4928798;29;20027;-79
2023/04/07 04:54:25;;;;;;;5.55;2.95;;;;;;;;;;4927536;29;20091;-79
2023/04/07 04:56:51;;;;;;;7.47;3.35;;;;;;;;;;4930044;29;20042;-80
2023/04/07 04:59:17;;;;;;;7.97;3.78;;;;;;;;;;4930029;29;20039;-79
2023/04/07 05:01:43;;;;;;;7.57;4.25;;;;;;;;;;4934633;29;20194;-79
2023/04/07 05:04:09;;;;;;;15.07;5.05;;;;;;;;;;4933967;29;20459;-80
2023/04/07 05:06:35;;;;;;;8.68;4.05;;;;;;;;;;4936148;29;20530;-81
2023/04/07 05:09:01;;;;;;;8.40;3.88;;;;;;;;;;4935223;29;20023;-80
2023/04/07 05:11:27;;;;;;;6.30;3.65;;;;;;;;;;4928516;29;20076;-78
2023/04/07 05:13:53;;;;;;;7.97;4.18;;;;;;;;;;4934642;29;20036;-81
2023/04/07 05:16:19;;;;;;;8.35;4.13;;;;;;;;;;4926876;29;20062;-82
2023/04/07 05:18:44;;;;;;;8.55;4.20;;;;;;;;;;4930683;29;20036;-78
2023/04/07 05:21:10;;;;;;;9.15;3.90;;;;;;;;;;4928677;29;20036;-80
2023/04/07 05:23:36;;;;;;;6.90;3.38;;;;;;;;;;4923741;29;20078;-81
2023/04/07 05:26:02;;;;;;;9.27;4.22;;;;;;;;;;4930919;29;20050;-79
2023/04/07 05:28:28;;;;;;;6.97;3.90;;;;;;;;;;4931568;29;20047;-79
2023/04/07 05:30:54;;;;;;;6.63;3.65;;;;;;;;;;4932715;29;20044;-78
2023/04/07 05:33:20;;;;;;;7.07;3.88;;;;;;;;;;4937369;29;20099;-79
2023/04/07 05:35:46;;;;;;;9.15;3.75;;;;;;;;;;4934397;29;20062;-79
2023/04/07 05:38:15;;;;;;;7.88;3.40;;;;;;;;;;4930424;29;21289;-79
2023/04/07 05:40:41;;;;;;;12.85;4.00;;;;;;;;;;4929970;29;20122;-79
2023/04/07 05:43:07;;;;;;;11.27;5.20;;;;;;;;;;4937354;29;20055;-79
2023/04/07 05:45:33;;;;;;;10.02;3.40;;;;;;;;;;4937256;29;20031;-77
2023/04/07 05:47:59;;;;;;;8.50;4.60;;;;;;;;;;4931663;29;20131;-79
2023/04/07 05:50:26;;;;;;;7.07;3.85;;;;;;;;;;4929121;29;20031;-78
2023/04/07 05:52:52;;;;;;;10.18;4.95;;;;;;;;;;4931244;29;20035;-79
2023/04/07 05:55:17;;;;;;;9.10;4.57;;;;;;;;;;4929920;29;20039;-79
2023/04/07 05:57:43;;;;;;;10.40;4.32;;;;;;;;;;4921786;29;20034;-80
2023/04/07 06:00:10;;;;;;;10.00;4.60;;;;;;;;;;4925904;29;20027;-81
2023/04/07 06:02:36;;;;;;;7.55;3.10;;;;;;;;;;4934178;29;20028;-79
2023/04/07 06:05:02;;;;;;;10.02;4.22;;;;;;;;;;4924782;29;20027;-82
2023/04/07 06:07:28;;;;;;;8.25;3.67;;;;;;;;;;4931854;29;20667;-83
2023/04/07 06:09:54;;;;;;;10.45;4.28;;;;;;;;;;4924851;29;21019;-82
2023/04/07 06:12:20;;;;;;;10.65;4.25;;;;;;;;;;4915179;29;20066;-84
2023/04/07 06:14:51;;;;;;;8.85;4.90;;;;;;;;;;4934597;29;20040;-81
2023/04/07 06:17:17;;;;;;;9.30;4.40;;;;;;;;;;4948386;29;20023;-81
2023/04/07 06:19:43;;;;;;;9.70;4.07;;;;;;;;;;4954685;29;21014;-81
2023/04/07 06:22:09;;;;;;;12.65;4.78;;;;;;;;;;4940013;29;20032;-81
2023/04/07 06:24:35;;;;;;;10.10;4.35;;;;;;;;;;4924082;29;20059;-79
2023/04/07 06:27:01;;;;;;;10.25;4.43;;;;;;;;;;4926220;29;20119;-79
2023/04/07 06:29:27;;;;;;;11.70;5.07;;;;;;;;;;4916365;29;20024;-80
2023/04/07 06:31:53;;;;;;;8.02;3.83;;;;;;;;;;4921262;29;20028;-80
2023/04/07 06:34:19;;;;;;;10.02;4.82;;;;;;;;;;4918162;29;20822;-81
2023/04/07 06:36:45;;;;;;;11.63;5.30;;;;;;;;;;4927251;29;20016;-80
2023/04/07 06:39:11;;;;;;;7.65;4.07;;;;;;;;;;4926888;29;20489;-80
2023/04/07 06:41:37;;;;;;;7.93;4.15;;;;;;;;;;4926693;29;20130;-80
2023/04/07 06:44:04;;;;;;;9.90;4.30;;;;;;;;;;4927883;29;20042;-80
2023/04/07 06:46:30;;;;;;;7.40;3.83;;;;;;;;;;4926547;29;20027;-81
2023/04/07 06:48:56;;;;;;;8.63;3.75;;;;;;;;;;4928638;29;20063;-79
2023/04/07 06:51:22;;;;;;;12.02;5.18;;;;;;;;;;4923361;29;20031;-80
2023/04/07 06:53:48;;;;;;;9.60;4.57;;;;;;;;;;4927678;29;20143;-80
2023/04/07 06:56:14;;;;;;;8.32;3.60;;;;;;;;;;4927371;29;20035;-79
2023/04/07 06:58:40;;;;;;;8.57;4.40;;;;;;;;;;4920193;29;20030;-81
2023/04/07 07:01:06;;;;;;;7.40;4.38;;;;;;;;;;4922171;29;20031;-78
2023/04/07 07:03:32;;;;;;;8.80;4.70;;;;;;;;;;4911367;29;20103;-78
2023/04/07 07:05:59;;;;;;;8.73;4.22;;;;;;;;;;4916293;29;20032;-80
2023/04/07 07:08:25;;;;;;;6.43;3.97;;;;;;;;;;4919060;29;20066;-80
2023/04/07 07:10:51;;;;;;;9.07;4.50;;;;;;;;;;4919598;29;20087;-79
2023/04/07 07:13:18;;;;;;;14.90;4.40;;;;;;;;;;4914728;29;20600;-79
2023/04/07 07:15:44;;;;;;;9.55;4.70;;;;;;;;;;4916983;29;20027;-79
2023/04/07 07:18:11;;;;;;;13.20;4.82;;;;;;;;;;4917043;29;20038;-78
2023/04/07 07:20:37;;;;;;;8.85;4.15;;;;;;;;;;4921687;29;20043;-79
2023/04/07 07:23:03;;;;;;;10.02;5.20;;;;;;;;;;4923444;29;20032;-79
2023/04/07 07:25:29;;;;;;;11.82;5.38;;;;;;;;;;4930430;29;20416;-79
2023/04/07 07:27:55;;;;;;;9.50;4.35;;;;;;;;;;4919748;29;20042;-79
2023/04/07 07:30:21;;;;;;;10.10;5.00;;;;;;;;;;4925561;29;20038;-81
2023/04/07 07:32:47;;;;;;;10.95;5.22;;;;;;;;;;4919217;29;20044;-79
2023/04/07 07:35:14;;;;;;;11.20;5.25;;;;;;;;;;4924538;29;20024;-79
2023/04/07 07:37:40;;;;;;;15.13;5.18;;;;;;;;;;4918889;29;20031;-80
2023/04/07 07:40:06;;;;;;;10.20;4.60;;;;;;;;;;4925921;29;20030;-80
2023/04/07 07:42:32;;;;;;;8.73;5.35;;;;;;;;;;4925745;29;20051;-80
2023/04/07 07:44:58;;;;;;;11.70;4.60;;;;;;;;;;4921383;29;20091;-79
2023/04/07 07:47:25;;;;;;;12.07;6.03;;;;;;;;;;4913196;29;20050;-79
2023/04/07 07:49:50;;;;;;;7.57;4.18;;;;;;;;;;4926821;29;20027;-81
2023/04/07 07:52:16;;;;;;;8.90;4.80;;;;;;;;;;4922368;29;20032;-79
2023/04/07 07:54:42;;;;;;;10.85;5.70;;;;;;;;;;4927786;29;20056;-82
2023/04/07 07:57:08;;;;;;;9.88;4.78;;;;;;;;;;4925372;29;20031;-81
2023/04/07 07:59:35;;;;;;;15.43;5.78;;;;;;;;;;4907005;29;20047;-80
2023/04/07 08:02:00;;;;;;;7.70;4.18;;;;;;;;;;4909636;29;20032;-81
2023/04/07 08:04:26;;;;;;;9.27;4.10;;;;;;;;;;4917168;29;20094;-80
2023/04/07 08:06:53;;;;;;;12.70;4.60;;;;;;;;;;4919630;29;20163;-80
2023/04/07 08:09:19;;;;;;;11.18;4.32;;;;;;;;;;4923491;29;20040;-80
2023/04/07 08:11:47;;;;;;;12.10;4.88;;;;;;;;;;4925259;29;20428;-80
2023/04/07 08:14:13;;;;;;;10.18;4.60;;;;;;;;;;4922724;29;20052;-81
2023/04/07 08:16:39;;;;;;;8.25;4.65;;;;;;;;;;4920315;29;20544;-80
2023/04/07 08:19:05;;;;;;;7.97;3.20;;;;;;;;;;4913294;29;20059;-82
2023/04/07 08:21:31;;;;;;;7.90;3.88;;;;;;;;;;4913404;29;20155;-82
2023/04/07 08:23:57;;;;;;;10.50;4.88;;;;;;;;;;4920406;29;20035;-82
2023/04/07 08:26:23;;;;;;;9.07;4.82;;;;;;;;;;4923491;29;20032;-81
2023/04/07 08:28:53;;;;;;;8.40;3.95;;;;;;;;;;4925152;29;20460;-81
2023/04/07 08:31:19;;;;;;;10.13;4.68;;;;;;;;;;4932292;29;20051;-82
2023/04/07 08:33:45;;;;;;;10.65;4.63;;;;;;;;;;4928611;29;20093;-82
2023/04/07 08:36:11;;;;;;;10.82;4.57;;;;;;;;;;4925015;29;20024;-81
2023/04/07 08:38:37;;;;;;;10.63;4.78;;;;;;;;;;4922706;29;20046;-81
2023/04/07 08:41:13;;;;;;;13.15;4.47;;;;;;;;;;4922968;29;20039;-83
2023/04/07 08:43:40;;;;;;;10.15;4.47;;;;;;;;;;4924906;29;20036;-82
2023/04/07 08:46:09;;;;;;;9.18;4.18;;;;;;;;;;4923419;29;20270;-81
2023/04/07 08:48:37;;;;;;;9.48;4.72;;;;;;;;;;4933265;29;20028;-82
2023/04/07 08:51:07;;;;;;;8.57;4.05;;;;;;;;;;4927422;29;20031;-82
2023/04/07 08:53:49;;;;;;;10.15;5.13;;;;;;;;;;4921751;29;20086;-83
2023/04/07 08:56:16;;;;;;;7.82;4.20;;;;;;;;;;4924314;29;20036;-83
2023/04/07 08:58:43;;;;;;;7.85;3.90;;;;;;;;;;4929404;29;20070;-83
2023/04/07 09:01:09;;;;;;;10.10;4.35;;;;;;;;;;4932091;29;20024;-83
2023/04/07 09:03:36;;;;;;;7.47;3.70;;;;;;;;;;4945321;29;20478;-82
2023/04/07 09:06:02;;;;;;;7.85;3.60;;;;;;;;;;4942775;29;20042;-82
2023/04/07 09:08:28;;;;;;;8.35;4.43;;;;;;;;;;4937447;29;20043;-81
2023/04/07 09:10:54;;;;;;;9.00;3.97;;;;;;;;;;4922153;29;20361;-83
2023/04/07 09:13:20;;;;;;;8.38;5.03;;;;;;;;;;4919837;29;20035;-81
2023/04/07 09:15:46;;;;;;;9.98;5.00;;;;;;;;;;4925057;29;20032;-83
2023/04/07 09:18:13;;;;;;;7.22;4.07;;;;;;;;;;4920064;29;20047;-82
2023/04/07 09:20:55;;;;;;;7.85;4.25;;;;;;;;;;4926739;29;20137;-80
2023/04/07 09:23:29;;;;;;;6.95;3.42;;;;;;;;;;4924538;29;20499;-81
2023/04/07 09:25:55;;;;;;;7.20;3.42;;;;;;;;;;4923860;29;20043;-81
2023/04/07 09:28:21;;;;;;;5.07;3.05;;;;;;;;;;4928188;29;20102;-81
2023/04/07 09:30:54;;;;;;;6.50;3.63;;;14.10;99.90;;;;;;4924014;29;20028;-81
2023/04/07 09:33:29;;;;;;;7.30;4.10;;;;;;;;;;4921071;29;20130;-81
2023/04/07 09:35:56;;;;;;;10.57;5.18;;;;;;;;;;4919432;29;20067;-82
2023/04/07 09:38:22;;;;;;;10.15;3.80;;;;;;;;;;4920340;29;20034;-80
2023/04/07 09:40:48;;;;;;;8.73;4.35;;;;;;;;;;4923752;29;20043;-82
2023/04/07 09:43:15;;;;;;;8.73;3.47;;;;;;;;;;4929198;29;20392;-80
2023/04/07 09:45:42;;;;;;;7.80;3.88;;;;;;;;;;4923454;29;20040;-80
2023/04/07 09:48:17;;;;;;;7.50;3.83;;;;;;;;;;4931703;29;20034;-81
2023/04/07 09:50:48;;;;;;;10.35;4.30;;;;;;;;;;4935420;29;20122;-81
2023/04/07 09:53:14;;;;;;;5.78;3.20;;;;;;;;;;4938442;29;20040;-81
2023/04/07 09:55:40;;;;;;;6.15;2.70;;;11.80;99.90;;;;;;4931722;29;20032;-79
2023/04/07 09:58:07;;;;;;;6.13;3.40;;;;;;;;;;4928251;29;20041;-82
2023/04/07 10:00:33;;;;;;;8.38;4.30;;;;;;;;;;4923913;29;20046;-81
2023/04/07 10:03:00;;;;;;;10.68;3.63;;;;;;;;;;4925830;29;21079;-81
2023/04/07 10:05:27;;;;;;;4.97;2.78;;;;;;;;;;4931125;29;20035;-82
2023/04/07 10:07:53;;;;;;;9.35;4.45;;;;;;;;;;4923311;29;20048;-81
2023/04/07 10:10:19;;;;;;;8.48;4.10;;;;;;;;;;4935292;29;20071;-80
2023/04/07 10:12:45;;;;;;;14.00;4.55;;;;;;;;;;4932244;29;20492;-81
2023/04/07 10:15:15;;;;;;;10.25;3.90;;;;;;;;;;4930826;29;20036;-83
2023/04/07 10:17:45;;;;;;;11.02;3.97;;;;;;;;;;4930828;29;20165;-82
2023/04/07 10:20:12;;;;;;;10.85;4.35;;;;;;;;;;4930941;29;20083;-83
2023/04/07 10:22:40;;;;;;;8.13;3.38;;;;;;;;;;4930422;29;20031;-82
2023/04/07 10:25:09;;;;;;;8.23;4.03;;;;;;;;;;4935655;29;20057;-83
2023/04/07 10:27:38;;;;;;;6.82;3.47;;;;;;;;;;4925568;29;20103;-81
2023/04/07 10:30:07;;;;;;;11.38;4.03;;;;;;;;;;4922340;29;20114;-81
2023/04/07 10:32:48;;;;;;;6.03;2.88;;;13.40;99.90;;;;;;4928427;29;20087;-81
2023/04/07 10:35:16;;;;;;;7.45;3.80;;;;;;;;;;4930449;29;20034;-81
2023/04/07 10:38:07;;;;;;;6.35;3.38;;;13.30;99.90;;;;;;4932713;29;20114;-81
2023/04/07 10:40:33;;;;;;;8.70;3.42;;;;;;;;;;4928072;29;20046;-81
2023/04/07 10:43:00;;;;;;;7.03;3.72;;;;;;;;;;4916125;29;20818;-82
2023/04/07 10:45:58;;;;;;;7.53;3.40;;;14.10;99.90;;;;;;4929631;29;20039;-83
2023/04/07 10:48:24;;;;;;;9.32;4.00;;;;;;;;;;4917344;29;20046;-84
2023/04/07 10:51:13;;;;;;;8.32;3.95;;;14.60;99.90;;;;;;4931229;29;20038;-84
2023/04/07 10:53:59;;;;;;;6.28;3.20;;;;;;;;;;4932565;29;20079;-83
2023/04/07 10:56:25;;;;;;;9.70;3.95;;;;;;;;;;4922737;29;20039;-83
2023/04/07 10:59:11;;;;;;;7.07;3.70;;;;;;;;;;4930652;29;20829;-84
2023/04/07 11:01:37;;;;;;;8.80;3.15;;;;;;;;;;4928434;29;20183;-82
2023/04/07 11:04:05;;;;;;;7.53;3.00;;;;;;;;;;4932214;29;20579;-84
2023/04/07 11:06:31;;;;;;;10.15;4.47;;;;;;;;;;4928708;29;21221;-83
2023/04/07 11:08:57;;;;;;;5.28;2.78;;;;;;;;;;4920016;29;20168;-84
2023/04/07 11:11:37;;;;;;;6.80;2.67;;;13.90;99.90;;;;;;4931953;29;20123;-83
2023/04/07 11:14:04;;;;;;;7.50;4.25;;;;;;;;;;4930994;29;20039;-85
2023/04/07 11:16:37;;;;;;;8.38;3.58;;;;;;;;;;4927255;29;20028;-84
2023/04/07 11:19:03;;;;;;;;;;;;;;;;;;4934967;29;20098;-84
2023/04/07 11:21:29;;;;;;;7.57;3.30;;;;;;;;;;4936199;29;20260;-84
2023/04/07 11:23:55;;;;;;;10.02;3.47;;;;;;;;;;4936721;29;20087;-83
2023/04/07 11:26:22;;;;;;;12.45;4.55;;;;;;;;;;4931909;29;20663;-84
2023/04/07 11:28:50;;;;;;;6.75;3.85;;;;;;;;;;4924547;29;20108;-84
2023/04/07 11:31:26;;;;;;;8.45;3.40;;;11.80;99.90;;;;;;4931908;29;20059;-83
2023/04/07 11:34:01;;;;;;;6.72;3.15;;;;;;;;;;4933708;29;20635;-83
2023/04/07 11:36:32;;;;;;;9.52;3.90;;;12.90;99.90;;;;;;4928170;29;20575;-84
2023/04/07 11:38:58;;;;;;;7.13;2.97;;;13.00;99.90;;;;;;4931031;29;20050;-84
2023/04/07 11:41:26;;;;;;;6.63;3.50;;;;;;;;;;4931973;29;20034;-83
2023/04/07 11:44:09;;;;;;;6.70;3.10;;;12.80;99.90;;;;;;4934773;29;20073;-84
2023/04/07 11:46:36;;;;;;;8.48;3.17;;;12.70;99.90;;;;;;4946051;29;20035;-84
2023/04/07 11:49:15;;;;;;;7.25;3.65;;;;;;;;;;4948914;29;20043;-83
2023/04/07 11:51:43;;;;;;;7.22;3.42;;;;;;;;;;4942840;29;20035;-83
2023/04/07 11:54:09;;;;;;;4.78;2.72;;;13.90;99.90;;;;;;4936538;29;20039;-83
2023/04/07 11:56:46;;;;;;;4.95;2.60;;;14.00;99.90;;;;;;4928140;29;20043;-83
2023/04/07 11:59:25;;;;;;;5.57;3.03;;;;;;;;;;4924460;29;20285;-81
2023/04/07 12:01:52;;;;;;;10.00;3.60;;;;;;;;;;4932359;29;20031;-83
2023/04/07 12:04:18;;;;;;;6.90;3.50;;;14.60;99.90;;;;;;4929276;29;20043;-82
2023/04/07 12:06:45;;;;;;;7.03;3.15;;;15.70;99.90;;;;;;4928501;29;20023;-83
2023/04/07 12:09:40;;;;;;;5.68;2.60;;;15.90;99.90;;;;;;4932826;29;20059;-83
2023/04/07 12:12:07;;;;;;;4.35;2.25;;;16.10;99.90;;;;;;4917437;29;20063;-82
2023/04/07 12:14:33;;;;;;;6.80;3.10;;;15.80;99.90;;;;;;4926923;29;20043;-82
2023/04/07 12:17:02;;;;;;;4.93;2.95;;;;;;;;;;4928965;29;20031;-82
2023/04/07 12:19:28;;;;;;;5.63;2.75;;;;;;;;;;4911797;29;20059;-84
2023/04/07 12:21:55;;;;;;;4.78;2.03;;;;;;;;;;4927295;29;20102;-82
2023/04/07 12:24:21;;;;;;;5.65;3.33;;;14.90;99.90;;;;;;4918879;29;20058;-84
2023/04/07 12:26:47;;;;;;;5.20;2.75;;;;;;;;;;4925780;29;20469;-83
2023/04/07 12:29:13;;;;;;;4.25;2.75;;;15.70;99.90;;;;;;4926077;29;20032;-83
2023/04/07 12:31:38;;;;;;;4.05;2.03;;;14.80;99.90;;;;;;4927792;29;20398;-83
2023/04/07 12:34:04;;;;;;;4.75;2.47;;;14.40;99.90;;;;;;4923929;29;21658;-81
2023/04/07 12:36:30;;;;;;;5.60;2.08;;;;;;;;;;4930723;29;20483;-82
2023/04/07 12:38:56;;;;;;;5.03;2.40;;;;;;;;;;4934574;29;23910;-82
2023/04/07 12:41:22;;;;;;;4.43;2.15;;;;;;;;;;4921247;29;20180;-83
2023/04/07 12:43:48;;;;;;;6.57;2.53;;;;;;;;;;4928115;29;20118;-81
2023/04/07 12:46:14;;;;;;;4.35;1.83;;;;;;;;;;4925437;29;20179;-82
2023/04/07 12:48:40;;;;;;;3.28;1.60;;;;;;;;;;4929795;29;20130;-81
2023/04/07 12:51:06;;;;;;;6.68;1.77;;;;;;;;;;4928517;29;20019;-82
2023/04/07 12:53:32;;;;;;;4.20;2.53;;;;;;;;;;4929854;29;20138;-82
2023/04/07 12:55:58;;;;;;;7.43;2.80;;;;;;;;;;4919345;29;20048;-82
2023/04/07 12:58:25;;;;;;;2.92;1.55;;;;;;;;;;4920762;29;20134;-82
2023/04/07 13:00:52;;;;;;;4.50;2.33;;;15.70;99.90;;;;;;4919375;29;20028;-81
2023/04/07 13:03:18;;;;;;;5.53;1.90;;;;;;;;;;4919545;29;20201;-81
2023/04/07 13:05:44;;;;;;;7.90;1.90;;;;;;;;;;4916567;29;20460;-82
2023/04/07 13:08:10;;;;;;;4.28;1.75;;;;;;;;;;4933294;29;20043;-80
2023/04/07 13:10:36;;;;;;;5.15;2.08;;;;;;;;;;4914111;29;20028;-81
2023/04/07 13:13:02;;;;;;;11.93;3.83;;;;;;;;;;4922304;29;20492;-81
2023/04/07 13:15:28;;;;;;;2.97;1.95;;;;;;;;;;4919542;29;20040;-83
2023/04/07 13:17:54;;;;;;;5.70;2.40;;;;;;;;;;4922124;29;20118;-83
2023/04/07 13:20:20;;;;;;;3.88;1.27;;;;;;;;;;4929289;29;20503;-82
2023/04/07 13:22:46;;;;;;;4.25;1.77;;;14.00;99.00;;;;;;4930031;29;20024;-81
2023/04/07 13:25:13;;;;;;;7.90;2.58;;;;;;;;;;4921197;29;20036;-82
2023/04/07 13:27:39;;;;;;;2.97;1.52;;;;;;;;;;4920031;29;20067;-82
2023/04/07 13:30:06;;;;;;;5.97;1.52;;;;;;;;;;4921470;29;20035;-84
2023/04/07 13:32:32;;;;;;;7.38;1.92;;;;;;;;;;4921627;29;20490;-81
2023/04/07 13:34:58;;;;;;;5.15;2.60;;;;;;;;;;4924651;29;20031;-81
2023/04/07 13:37:24;;;;;;;6.13;1.55;;;;;;;;;;4933075;29;20051;-82
2023/04/07 13:39:51;;;;;;;5.40;1.83;;;;;;;;;;4927364;29;20039;-82
2023/04/07 13:42:19;;;;;;;4.45;1.40;;;;;;;;;;4925063;29;20362;-81
2023/04/07 13:44:46;;;;;;;2.67;1.10;;;;;;;;;;4924428;29;20571;-81
2023/04/07 13:47:18;;;;;;;3.83;1.60;;;;;;;;;;4929750;29;20460;-81
2023/04/07 13:49:44;;;;;;;3.92;2.10;;;;;;;;;;4926792;29;20031;-81
2023/04/07 13:52:10;;;;;;;3.53;1.52;;;;;;;;;;4919205;29;20038;-84
2023/04/07 13:54:37;;;;;;;2.13;1.13;;;;;;;;;;4928744;29;20035;-78
2023/04/07 13:57:03;;;;;;;2.58;0.95;;;14.70;99.90;;;;;;4932021;29;20032;-81
2023/04/07 13:59:29;;;;;;;3.58;1.70;;;;;;;;;;4926351;29;20494;-82
2023/04/07 14:01:55;;;;;;;5.72;1.85;;;;;;;;;;4909807;29;20043;-84
2023/04/07 14:04:21;;;;;;;1.75;0.82;;;;;;;;;;4925953;29;20032;-81
2023/04/07 14:06:47;;;;;;;4.78;1.25;;;;;;;;;;4928020;29;20032;-82
2023/04/07 14:09:13;;;;;;;4.60;1.58;;;;;;;;;;4931672;29;20699;-81
2023/04/07 14:11:39;;;;;;;4.40;1.50;;;;;;;;;;4929562;29;22511;-81
2023/04/07 14:14:05;;;;;;;3.67;0.95;;;;;;;;;;4926581;29;21204;-82
2023/04/07 14:16:31;;;;;;;7.68;0.95;;;;;;;;;;4922235;29;20023;-82
2023/04/07 14:18:57;;;;;;;5.25;1.20;;;;;;;;;;4928070;29;20039;-82
2023/04/07 14:21:24;;;;;;;6.15;1.48;;;;;;;;;;4922725;29;20032;-82
2023/04/07 14:23:50;;;;;;;2.53;0.98;;;;;;;;;;4919662;29;20050;-82
2023/04/07 14:26:16;;;;;;;5.10;0.90;;;;;;;;;;4917792;29;20043;-79
2023/04/07 14:28:42;;;;;;;2.13;0.90;;;15.00;99.80;;;;;;4931462;29;20048;-78
2023/04/07 14:31:11;;;;;;;2.45;0.98;;;;;;;;;;4922602;29;20135;-80
2023/04/07 14:33:37;;;;;;;2.72;1.10;;;;;;;;;;4923102;29;20078;-82
2023/04/07 14:36:03;;;;;;;3.15;1.33;;;;;;;;;;4935007;29;20059;-81
2023/04/07 14:38:30;;;;;;;3.17;1.08;;;;;;;;;;4921178;29;20043;-83
2023/04/07 14:40:56;;;;;;;4.13;1.65;;;;;;;;;;4921815;29;20015;-82
2023/04/07 14:43:22;;;;;;;2.78;1.30;;;;;;;;;;4927081;29;20436;-81
2023/04/07 14:45:48;;;;;;;1.52;1.00;;;;;;;;;;4921148;29;20070;-81
2023/04/07 14:48:13;;;;;;;2.00;0.75;;;;;;;;;;4926590;29;20032;-81
2023/04/07 14:50:40;;;;;;;1.83;0.80;;;;;;;;;;4929792;29;20024;-82
2023/04/07 14:53:06;;;;;;;4.18;1.67;;;;;;;;;;4932465;29;20282;-81
2023/04/07 14:55:33;;;;;;;1.77;0.77;;;;;;;;;;4935005;29;20027;-81